sensor_id;sensor_type;location;lat;lon;timestamp;temperature;humidity
67161;DHT22;54088;52.238;21.104;2022-11-15T00:01:52;7.60;92.50
67161;DHT22;54088;52.238;21.104;2022-11-15T00:04:18;7.50;92.50
67161;DHT22;54088;52.238;21.104;2022-11-15T00:06:43;7.50;92.70
67161;DHT22;54088;52.238;21.104;2022-11-15T00:09:09;7.50;92.80
67161;DHT22;54088;52.238;21.104;2022-11-15T00:11:35;7.50;92.80
67161;DHT22;54088;52.238;21.104;2022-11-15T00:14:00;7.40;92.80
67161;DHT22;54088;52.238;21.104;2022-11-15T00:16:28;7.40;92.90
67161;DHT22;54088;52.238;21.104;2022-11-15T00:18:53;7.40;93.00
67161;DHT22;54088;52.238;21.104;2022-11-15T00:21:19;7.40;93.20
67161;DHT22;54088;52.238;21.104;2022-11-15T00:23:45;7.40;93.20
67161;DHT22;54088;52.238;21.104;2022-11-15T00:26:13;7.30;93.30
67161;DHT22;54088;52.238;21.104;2022-11-15T00:28:40;7.40;93.30
67161;DHT22;54088;52.238;21.104;2022-11-15T00:31:13;7.40;93.40
67161;DHT22;54088;52.238;21.104;2022-11-15T00:33:39;7.40;93.50
67161;DHT22;54088;52.238;21.104;2022-11-15T00:36:09;7.40;93.40
67161;DHT22;54088;52.238;21.104;2022-11-15T00:38:37;7.40;93.40
67161;DHT22;54088;52.238;21.104;2022-11-15T00:41:04;7.40;93.30
67161;DHT22;54088;52.238;21.104;2022-11-15T00:43:31;7.40;93.50
67161;DHT22;54088;52.238;21.104;2022-11-15T00:45:56;7.40;93.50
67161;DHT22;54088;52.238;21.104;2022-11-15T00:48:22;7.30;93.60
67161;DHT22;54088;52.238;21.104;2022-11-15T00:50:48;7.40;93.80
67161;DHT22;54088;52.238;21.104;2022-11-15T00:53:15;7.50;93.60
67161;DHT22;54088;52.238;21.104;2022-11-15T00:55:40;7.40;93.50
67161;DHT22;54088;52.238;21.104;2022-11-15T00:58:06;7.40;93.60
67161;DHT22;54088;52.238;21.104;2022-11-15T01:00:32;7.40;93.60
67161;DHT22;54088;52.238;21.104;2022-11-15T01:02:57;7.40;93.70
67161;DHT22;54088;52.238;21.104;2022-11-15T01:05:23;7.40;93.80
67161;DHT22;54088;52.238;21.104;2022-11-15T01:07:53;7.40;93.90
67161;DHT22;54088;52.238;21.104;2022-11-15T01:10:19;7.30;93.90
67161;DHT22;54088;52.238;21.104;2022-11-15T01:12:45;7.30;94.00
67161;DHT22;54088;52.238;21.104;2022-11-15T01:15:11;7.40;94.00
67161;DHT22;54088;52.238;21.104;2022-11-15T01:17:37;7.30;94.00
67161;DHT22;54088;52.238;21.104;2022-11-15T01:20:03;7.40;94.00
67161;DHT22;54088;52.238;21.104;2022-11-15T01:22:29;7.40;94.00
67161;DHT22;54088;52.238;21.104;2022-11-15T01:24:54;7.40;94.00
67161;DHT22;54088;52.238;21.104;2022-11-15T01:27:20;7.40;94.10
67161;DHT22;54088;52.238;21.104;2022-11-15T01:29:45;7.40;94.00
67161;DHT22;54088;52.238;21.104;2022-11-15T01:32:11;7.40;94.10
67161;DHT22;54088;52.238;21.104;2022-11-15T01:34:37;7.40;93.90
67161;DHT22;54088;52.238;21.104;2022-11-15T01:37:02;7.40;94.20
67161;DHT22;54088;52.238;21.104;2022-11-15T01:39:28;7.30;94.10
67161;DHT22;54088;52.238;21.104;2022-11-15T01:41:54;7.40;94.20
67161;DHT22;54088;52.238;21.104;2022-11-15T01:47:03;7.40;94.00
67161;DHT22;54088;52.238;21.104;2022-11-15T01:49:33;7.50;94.20
67161;DHT22;54088;52.238;21.104;2022-11-15T01:52:01;7.40;94.10
67161;DHT22;54088;52.238;21.104;2022-11-15T01:54:27;7.50;94.10
67161;DHT22;54088;52.238;21.104;2022-11-15T01:56:58;7.60;93.90
67161;DHT22;54088;52.238;21.104;2022-11-15T01:59:25;7.50;93.90
67161;DHT22;54088;52.238;21.104;2022-11-15T02:01:51;7.50;93.90
67161;DHT22;54088;52.238;21.104;2022-11-15T02:04:26;7.40;94.00
67161;DHT22;54088;52.238;21.104;2022-11-15T02:06:53;7.40;94.10
67161;DHT22;54088;52.238;21.104;2022-11-15T02:09:19;7.40;94.10
67161;DHT22;54088;52.238;21.104;2022-11-15T02:11:46;7.50;94.10
67161;DHT22;54088;52.238;21.104;2022-11-15T02:14:13;7.50;93.90
67161;DHT22;54088;52.238;21.104;2022-11-15T02:16:59;7.50;93.90
67161;DHT22;54088;52.238;21.104;2022-11-15T02:27:53;7.40;94.10
67161;DHT22;54088;52.238;21.104;2022-11-15T02:33:02;7.40;94.20
67161;DHT22;54088;52.238;21.104;2022-11-15T02:38:21;7.40;94.10
67161;DHT22;54088;52.238;21.104;2022-11-15T02:41:01;7.50;94.00
67161;DHT22;54088;52.238;21.104;2022-11-15T02:43:49;7.50;94.00
67161;DHT22;54088;52.238;21.104;2022-11-15T02:46:35;7.50;93.90
67161;DHT22;54088;52.238;21.104;2022-11-15T02:49:21;7.50;94.00
67161;DHT22;54088;52.238;21.104;2022-11-15T02:51:49;7.50;94.00
67161;DHT22;54088;52.238;21.104;2022-11-15T02:54:24;7.50;94.30
67161;DHT22;54088;52.238;21.104;2022-11-15T02:56:52;7.50;94.10
67161;DHT22;54088;52.238;21.104;2022-11-15T02:59:41;7.50;93.90
67161;DHT22;54088;52.238;21.104;2022-11-15T03:02:26;7.50;94.00
67161;DHT22;54088;52.238;21.104;2022-11-15T03:05:02;7.50;93.90
67161;DHT22;54088;52.238;21.104;2022-11-15T03:10:08;7.40;94.00
67161;DHT22;54088;52.238;21.104;2022-11-15T03:12:49;7.30;94.10
67161;DHT22;54088;52.238;21.104;2022-11-15T03:15:33;7.30;94.30
67161;DHT22;54088;52.238;21.104;2022-11-15T03:18:10;7.20;94.50
67161;DHT22;54088;52.238;21.104;2022-11-15T03:20:38;7.20;94.60
67161;DHT22;54088;52.238;21.104;2022-11-15T03:23:06;7.20;94.60
67161;DHT22;54088;52.238;21.104;2022-11-15T03:25:36;7.30;94.60
67161;DHT22;54088;52.238;21.104;2022-11-15T03:28:05;7.30;94.50
67161;DHT22;54088;52.238;21.104;2022-11-15T03:30:34;7.20;94.60
67161;DHT22;54088;52.238;21.104;2022-11-15T03:33:03;7.20;94.60
67161;DHT22;54088;52.238;21.104;2022-11-15T03:35:36;7.10;94.80
67161;DHT22;54088;52.238;21.104;2022-11-15T03:38:26;7.10;94.90
67161;DHT22;54088;52.238;21.104;2022-11-15T03:40:58;7.20;94.70
67161;DHT22;54088;52.238;21.104;2022-11-15T03:43:32;7.20;94.60
67161;DHT22;54088;52.238;21.104;2022-11-15T03:46:06;7.20;94.70
67161;DHT22;54088;52.238;21.104;2022-11-15T03:48:37;7.20;94.70
67161;DHT22;54088;52.238;21.104;2022-11-15T03:51:05;7.30;94.60
67161;DHT22;54088;52.238;21.104;2022-11-15T03:53:31;7.20;94.60
67161;DHT22;54088;52.238;21.104;2022-11-15T03:55:58;7.20;94.70
67161;DHT22;54088;52.238;21.104;2022-11-15T03:58:23;7.20;94.70
67161;DHT22;54088;52.238;21.104;2022-11-15T04:00:49;7.20;94.70
67161;DHT22;54088;52.238;21.104;2022-11-15T04:03:15;7.20;94.70
67161;DHT22;54088;52.238;21.104;2022-11-15T04:05:40;7.20;94.80
67161;DHT22;54088;52.238;21.104;2022-11-15T04:08:06;7.30;94.60
67161;DHT22;54088;52.238;21.104;2022-11-15T04:10:31;7.30;94.60
67161;DHT22;54088;52.238;21.104;2022-11-15T04:12:57;7.20;94.70
67161;DHT22;54088;52.238;21.104;2022-11-15T04:15:24;7.20;94.70
67161;DHT22;54088;52.238;21.104;2022-11-15T04:17:54;7.10;94.70
67161;DHT22;54088;52.238;21.104;2022-11-15T04:20:23;7.20;94.90
67161;DHT22;54088;52.238;21.104;2022-11-15T04:23:16;7.20;94.70
67161;DHT22;54088;52.238;21.104;2022-11-15T04:26:12;7.20;94.70
67161;DHT22;54088;52.238;21.104;2022-11-15T04:28:38;7.10;94.80
67161;DHT22;54088;52.238;21.104;2022-11-15T04:31:24;7.20;95.00
67161;DHT22;54088;52.238;21.104;2022-11-15T04:33:49;7.20;94.80
67161;DHT22;54088;52.238;21.104;2022-11-15T04:36:15;7.20;94.90
67161;DHT22;54088;52.238;21.104;2022-11-15T04:38:59;7.30;94.50
67161;DHT22;54088;52.238;21.104;2022-11-15T04:41:25;7.20;94.80
67161;DHT22;54088;52.238;21.104;2022-11-15T04:43:50;7.20;94.80
67161;DHT22;54088;52.238;21.104;2022-11-15T04:46:16;7.20;94.80
67161;DHT22;54088;52.238;21.104;2022-11-15T04:48:42;7.30;94.80
67161;DHT22;54088;52.238;21.104;2022-11-15T04:51:07;7.40;94.50
67161;DHT22;54088;52.238;21.104;2022-11-15T04:53:33;7.50;94.50
67161;DHT22;54088;52.238;21.104;2022-11-15T04:55:58;7.40;94.30
67161;DHT22;54088;52.238;21.104;2022-11-15T04:58:24;7.30;94.40
67161;DHT22;54088;52.238;21.104;2022-11-15T05:00:50;7.30;94.50
67161;DHT22;54088;52.238;21.104;2022-11-15T05:03:16;7.30;94.60
67161;DHT22;54088;52.238;21.104;2022-11-15T05:06:00;7.30;94.60
67161;DHT22;54088;52.238;21.104;2022-11-15T05:08:26;7.30;94.50
67161;DHT22;54088;52.238;21.104;2022-11-15T05:10:52;7.30;94.50
67161;DHT22;54088;52.238;21.104;2022-11-15T05:13:17;7.30;94.50
67161;DHT22;54088;52.238;21.104;2022-11-15T05:15:43;7.30;94.60
67161;DHT22;54088;52.238;21.104;2022-11-15T05:18:09;7.30;94.70
67161;DHT22;54088;52.238;21.104;2022-11-15T05:20:34;7.30;94.50
67161;DHT22;54088;52.238;21.104;2022-11-15T05:23:00;7.30;94.60
67161;DHT22;54088;52.238;21.104;2022-11-15T05:25:26;7.20;94.50
67161;DHT22;54088;52.238;21.104;2022-11-15T05:27:52;7.20;94.70
67161;DHT22;54088;52.238;21.104;2022-11-15T05:30:18;7.20;94.70
67161;DHT22;54088;52.238;21.104;2022-11-15T05:32:44;7.20;94.70
67161;DHT22;54088;52.238;21.104;2022-11-15T05:35:56;7.20;94.70
67161;DHT22;54088;52.238;21.104;2022-11-15T05:38:02;7.20;94.70
67161;DHT22;54088;52.238;21.104;2022-11-15T05:40:28;7.20;94.60
67161;DHT22;54088;52.238;21.104;2022-11-15T05:42:55;7.20;94.70
67161;DHT22;54088;52.238;21.104;2022-11-15T05:45:21;7.30;94.70
67161;DHT22;54088;52.238;21.104;2022-11-15T05:47:48;7.30;94.60
67161;DHT22;54088;52.238;21.104;2022-11-15T05:50:17;7.30;94.50
67161;DHT22;54088;52.238;21.104;2022-11-15T05:52:44;7.30;94.50
67161;DHT22;54088;52.238;21.104;2022-11-15T05:55:10;7.30;94.50
67161;DHT22;54088;52.238;21.104;2022-11-15T05:57:36;7.30;94.60
67161;DHT22;54088;52.238;21.104;2022-11-15T06:00:04;7.40;94.60
67161;DHT22;54088;52.238;21.104;2022-11-15T06:02:30;7.40;94.40
67161;DHT22;54088;52.238;21.104;2022-11-15T06:04:55;7.30;94.40
67161;DHT22;54088;52.238;21.104;2022-11-15T06:07:21;7.30;94.50
67161;DHT22;54088;52.238;21.104;2022-11-15T06:09:46;7.30;94.40
67161;DHT22;54088;52.238;21.104;2022-11-15T06:12:12;7.30;94.40
67161;DHT22;54088;52.238;21.104;2022-11-15T06:14:38;7.30;94.60
67161;DHT22;54088;52.238;21.104;2022-11-15T06:17:04;7.20;94.70
67161;DHT22;54088;52.238;21.104;2022-11-15T06:19:29;7.30;94.70
67161;DHT22;54088;52.238;21.104;2022-11-15T06:22:01;7.30;94.60
67161;DHT22;54088;52.238;21.104;2022-11-15T06:24:27;7.30;94.60
67161;DHT22;54088;52.238;21.104;2022-11-15T06:26:53;7.40;94.60
67161;DHT22;54088;52.238;21.104;2022-11-15T06:29:18;7.30;94.70
67161;DHT22;54088;52.238;21.104;2022-11-15T06:31:44;7.40;94.60
67161;DHT22;54088;52.238;21.104;2022-11-15T06:34:10;7.40;94.50
67161;DHT22;54088;52.238;21.104;2022-11-15T06:36:35;7.40;94.50
67161;DHT22;54088;52.238;21.104;2022-11-15T06:39:02;7.40;94.60
67161;DHT22;54088;52.238;21.104;2022-11-15T06:41:29;7.50;94.50
67161;DHT22;54088;52.238;21.104;2022-11-15T06:43:54;7.50;94.40
67161;DHT22;54088;52.238;21.104;2022-11-15T06:46:20;7.40;94.40
67161;DHT22;54088;52.238;21.104;2022-11-15T06:48:46;7.40;94.50
67161;DHT22;54088;52.238;21.104;2022-11-15T06:51:11;7.40;94.40
67161;DHT22;54088;52.238;21.104;2022-11-15T06:53:37;7.40;94.20
67161;DHT22;54088;52.238;21.104;2022-11-15T06:56:06;7.30;94.30
67161;DHT22;54088;52.238;21.104;2022-11-15T06:58:33;7.30;94.40
67161;DHT22;54088;52.238;21.104;2022-11-15T07:01:04;7.30;94.40
67161;DHT22;54088;52.238;21.104;2022-11-15T07:03:31;7.30;94.50
67161;DHT22;54088;52.238;21.104;2022-11-15T07:05:57;7.40;94.30
67161;DHT22;54088;52.238;21.104;2022-11-15T07:08:26;7.50;94.40
67161;DHT22;54088;52.238;21.104;2022-11-15T07:10:52;7.50;94.20
67161;DHT22;54088;52.238;21.104;2022-11-15T07:13:17;7.50;94.10
67161;DHT22;54088;52.238;21.104;2022-11-15T07:15:43;7.40;94.10
67161;DHT22;54088;52.238;21.104;2022-11-15T07:18:09;7.40;94.10
67161;DHT22;54088;52.238;21.104;2022-11-15T07:20:34;7.40;93.90
67161;DHT22;54088;52.238;21.104;2022-11-15T07:23:04;7.30;94.00
67161;DHT22;54088;52.238;21.104;2022-11-15T07:25:30;7.40;94.10
67161;DHT22;54088;52.238;21.104;2022-11-15T07:27:57;7.40;94.10
67161;DHT22;54088;52.238;21.104;2022-11-15T07:30:24;7.40;94.00
67161;DHT22;54088;52.238;21.104;2022-11-15T07:32:57;7.50;93.80
67161;DHT22;54088;52.238;21.104;2022-11-15T07:35:24;7.50;93.70
67161;DHT22;54088;52.238;21.104;2022-11-15T07:38:03;7.50;93.60
67161;DHT22;54088;52.238;21.104;2022-11-15T07:40:30;7.50;93.60
67161;DHT22;54088;52.238;21.104;2022-11-15T07:43:05;7.40;93.60
67161;DHT22;54088;52.238;21.104;2022-11-15T07:45:31;7.40;93.60
67161;DHT22;54088;52.238;21.104;2022-11-15T07:47:59;7.30;93.80
67161;DHT22;54088;52.238;21.104;2022-11-15T07:50:25;7.30;93.80
67161;DHT22;54088;52.238;21.104;2022-11-15T07:52:58;7.30;93.80
67161;DHT22;54088;52.238;21.104;2022-11-15T07:55:25;7.30;94.00
67161;DHT22;54088;52.238;21.104;2022-11-15T07:57:52;7.40;93.90
67161;DHT22;54088;52.238;21.104;2022-11-15T08:00:18;7.40;93.90
67161;DHT22;54088;52.238;21.104;2022-11-15T08:02:44;7.50;93.90
67161;DHT22;54088;52.238;21.104;2022-11-15T08:05:10;7.50;93.80
67161;DHT22;54088;52.238;21.104;2022-11-15T08:07:36;7.50;93.70
67161;DHT22;54088;52.238;21.104;2022-11-15T08:10:04;7.60;93.60
67161;DHT22;54088;52.238;21.104;2022-11-15T08:12:31;7.70;93.60
67161;DHT22;54088;52.238;21.104;2022-11-15T08:14:57;7.70;93.30
67161;DHT22;54088;52.238;21.104;2022-11-15T08:17:24;7.70;93.20
67161;DHT22;54088;52.238;21.104;2022-11-15T08:19:50;7.70;93.00
67161;DHT22;54088;52.238;21.104;2022-11-15T08:22:15;7.70;92.80
67161;DHT22;54088;52.238;21.104;2022-11-15T08:24:41;7.60;92.70
67161;DHT22;54088;52.238;21.104;2022-11-15T08:27:07;7.60;92.90
67161;DHT22;54088;52.238;21.104;2022-11-15T08:29:48;7.60;92.90
67161;DHT22;54088;52.238;21.104;2022-11-15T08:32:14;7.50;92.70
67161;DHT22;54088;52.238;21.104;2022-11-15T08:34:39;7.50;93.00
67161;DHT22;54088;52.238;21.104;2022-11-15T08:37:05;7.50;93.00
67161;DHT22;54088;52.238;21.104;2022-11-15T08:39:31;7.60;93.00
67161;DHT22;54088;52.238;21.104;2022-11-15T08:41:57;7.70;92.70
67161;DHT22;54088;52.238;21.104;2022-11-15T08:44:23;7.70;92.60
67161;DHT22;54088;52.238;21.104;2022-11-15T08:46:49;7.80;92.40
67161;DHT22;54088;52.238;21.104;2022-11-15T08:49:15;7.80;92.30
67161;DHT22;54088;52.238;21.104;2022-11-15T08:51:41;7.90;92.40
67161;DHT22;54088;52.238;21.104;2022-11-15T08:54:06;8.00;92.20
67161;DHT22;54088;52.238;21.104;2022-11-15T08:56:32;8.00;92.10
67161;DHT22;54088;52.238;21.104;2022-11-15T08:58:58;8.00;92.10
67161;DHT22;54088;52.238;21.104;2022-11-15T09:01:23;7.90;92.10
67161;DHT22;54088;52.238;21.104;2022-11-15T09:03:49;8.00;92.10
67161;DHT22;54088;52.238;21.104;2022-11-15T09:06:15;8.00;92.00
67161;DHT22;54088;52.238;21.104;2022-11-15T09:08:40;7.90;92.00
67161;DHT22;54088;52.238;21.104;2022-11-15T09:11:08;7.90;92.00
67161;DHT22;54088;52.238;21.104;2022-11-15T09:13:35;7.90;91.80
67161;DHT22;54088;52.238;21.104;2022-11-15T09:16:04;7.90;91.70
67161;DHT22;54088;52.238;21.104;2022-11-15T09:18:30;7.90;91.70
67161;DHT22;54088;52.238;21.104;2022-11-15T09:20:57;7.90;91.90
67161;DHT22;54088;52.238;21.104;2022-11-15T09:23:23;8.00;91.80
67161;DHT22;54088;52.238;21.104;2022-11-15T09:25:49;8.10;91.50
67161;DHT22;54088;52.238;21.104;2022-11-15T09:28:15;8.20;91.50
67161;DHT22;54088;52.238;21.104;2022-11-15T09:30:40;8.20;91.50
67161;DHT22;54088;52.238;21.104;2022-11-15T09:33:15;8.20;91.40
67161;DHT22;54088;52.238;21.104;2022-11-15T09:35:40;8.30;91.30
67161;DHT22;54088;52.238;21.104;2022-11-15T09:38:06;8.30;91.20
67161;DHT22;54088;52.238;21.104;2022-11-15T09:40:32;8.20;91.10
67161;DHT22;54088;52.238;21.104;2022-11-15T09:48:56;8.20;91.40
67161;DHT22;54088;52.238;21.104;2022-11-15T09:51:30;8.20;91.30
67161;DHT22;54088;52.238;21.104;2022-11-15T09:56:32;8.20;91.50
67161;DHT22;54088;52.238;21.104;2022-11-15T10:04:21;8.40;91.20
67161;DHT22;54088;52.238;21.104;2022-11-15T10:07:13;8.40;91.20
67161;DHT22;54088;52.238;21.104;2022-11-15T10:09:52;8.40;91.10
67161;DHT22;54088;52.238;21.104;2022-11-15T10:12:20;8.40;91.10
67161;DHT22;54088;52.238;21.104;2022-11-15T10:14:49;8.40;91.00
67161;DHT22;54088;52.238;21.104;2022-11-15T10:22:35;8.50;90.80
67161;DHT22;54088;52.238;21.104;2022-11-15T10:27:29;8.60;91.00
67161;DHT22;54088;52.238;21.104;2022-11-15T10:29:55;8.40;90.90
67161;DHT22;54088;52.238;21.104;2022-11-15T10:32:21;8.40;91.00
67161;DHT22;54088;52.238;21.104;2022-11-15T10:34:48;8.40;91.00
67161;DHT22;54088;52.238;21.104;2022-11-15T10:37:14;8.40;91.10
67161;DHT22;54088;52.238;21.104;2022-11-15T10:39:40;8.30;91.10
67161;DHT22;54088;52.238;21.104;2022-11-15T10:42:26;8.40;91.20
67161;DHT22;54088;52.238;21.104;2022-11-15T10:44:52;8.50;91.20
67161;DHT22;54088;52.238;21.104;2022-11-15T10:47:25;8.70;91.20
67161;DHT22;54088;52.238;21.104;2022-11-15T10:49:59;8.70;91.00
67161;DHT22;54088;52.238;21.104;2022-11-15T10:52:25;8.70;91.20
67161;DHT22;54088;52.238;21.104;2022-11-15T10:54:56;8.70;91.30
67161;DHT22;54088;52.238;21.104;2022-11-15T10:57:29;8.70;91.30
67161;DHT22;54088;52.238;21.104;2022-11-15T11:03:00;8.70;91.10
67161;DHT22;54088;52.238;21.104;2022-11-15T11:08:04;8.80;91.10
67161;DHT22;54088;52.238;21.104;2022-11-15T11:10:31;8.70;91.00
67161;DHT22;54088;52.238;21.104;2022-11-15T11:16:17;8.80;91.00
67161;DHT22;54088;52.238;21.104;2022-11-15T11:18:47;8.80;90.90
67161;DHT22;54088;52.238;21.104;2022-11-15T11:21:22;8.80;90.90
67161;DHT22;54088;52.238;21.104;2022-11-15T11:23:59;8.80;90.60
67161;DHT22;54088;52.238;21.104;2022-11-15T11:26:40;8.70;90.60
67161;DHT22;54088;52.238;21.104;2022-11-15T11:32:14;8.60;90.90
67161;DHT22;54088;52.238;21.104;2022-11-15T11:37:42;8.70;90.80
67161;DHT22;54088;52.238;21.104;2022-11-15T11:40:32;8.80;90.90
67161;DHT22;54088;52.238;21.104;2022-11-15T11:48:13;8.80;90.90
67161;DHT22;54088;52.238;21.104;2022-11-15T11:50:41;8.80;90.70
67161;DHT22;54088;52.238;21.104;2022-11-15T11:53:35;8.80;90.70
67161;DHT22;54088;52.238;21.104;2022-11-15T11:56:05;8.80;90.80
67161;DHT22;54088;52.238;21.104;2022-11-15T11:58:40;8.80;90.70
67161;DHT22;54088;52.238;21.104;2022-11-15T12:04:11;8.80;90.60
67161;DHT22;54088;52.238;21.104;2022-11-15T12:06:46;8.90;90.60
67161;DHT22;54088;52.238;21.104;2022-11-15T12:09:33;8.90;90.60
67161;DHT22;54088;52.238;21.104;2022-11-15T12:14:56;9.00;90.50
67161;DHT22;54088;52.238;21.104;2022-11-15T12:17:24;9.10;90.50
67161;DHT22;54088;52.238;21.104;2022-11-15T12:19:52;9.10;90.40
67161;DHT22;54088;52.238;21.104;2022-11-15T12:24:54;9.10;90.30
67161;DHT22;54088;52.238;21.104;2022-11-15T12:30:12;9.20;90.20
67161;DHT22;54088;52.238;21.104;2022-11-15T12:32:47;9.20;90.20
67161;DHT22;54088;52.238;21.104;2022-11-15T12:37:54;9.20;90.20
67161;DHT22;54088;52.238;21.104;2022-11-15T12:40:32;9.20;90.20
67161;DHT22;54088;52.238;21.104;2022-11-15T12:45:36;9.20;90.10
67161;DHT22;54088;52.238;21.104;2022-11-15T12:51:00;9.20;90.00
67161;DHT22;54088;52.238;21.104;2022-11-15T12:53:30;9.20;90.00
67161;DHT22;54088;52.238;21.104;2022-11-15T13:11:59;9.00;90.20
67161;DHT22;54088;52.238;21.104;2022-11-15T13:14:46;8.90;90.30
67161;DHT22;54088;52.238;21.104;2022-11-15T13:19:52;8.90;90.40
67161;DHT22;54088;52.238;21.104;2022-11-15T13:22:18;8.90;90.50
67161;DHT22;54088;52.238;21.104;2022-11-15T13:25:03;9.00;90.70
67161;DHT22;54088;52.238;21.104;2022-11-15T13:27:29;9.00;90.40
67161;DHT22;54088;52.238;21.104;2022-11-15T13:29:55;9.00;90.30
67161;DHT22;54088;52.238;21.104;2022-11-15T13:32:21;8.90;90.30
67161;DHT22;54088;52.238;21.104;2022-11-15T13:34:48;8.60;90.60
67161;DHT22;54088;52.238;21.104;2022-11-15T13:39:48;8.60;91.10
67161;DHT22;54088;52.238;21.104;2022-11-15T13:42:20;8.70;91.20
67161;DHT22;54088;52.238;21.104;2022-11-15T13:44:57;8.60;91.20
67161;DHT22;54088;52.238;21.104;2022-11-15T13:47:26;8.70;91.00
67161;DHT22;54088;52.238;21.104;2022-11-15T13:49:53;8.70;91.10
67161;DHT22;54088;52.238;21.104;2022-11-15T13:52:19;8.70;91.00
67161;DHT22;54088;52.238;21.104;2022-11-15T13:57:22;8.70;91.10
67161;DHT22;54088;52.238;21.104;2022-11-15T13:59:56;8.70;91.10
67161;DHT22;54088;52.238;21.104;2022-11-15T14:02:30;8.70;91.00
67161;DHT22;54088;52.238;21.104;2022-11-15T14:07:27;8.60;91.10
67161;DHT22;54088;52.238;21.104;2022-11-15T14:09:54;8.50;91.30
67161;DHT22;54088;52.238;21.104;2022-11-15T14:12:31;8.50;91.40
67161;DHT22;54088;52.238;21.104;2022-11-15T14:15:49;8.40;91.50
67161;DHT22;54088;52.238;21.104;2022-11-15T14:18:42;8.50;91.50
67161;DHT22;54088;52.238;21.104;2022-11-15T14:21:08;8.30;91.60
67161;DHT22;54088;52.238;21.104;2022-11-15T14:23:34;8.30;91.70
67161;DHT22;54088;52.238;21.104;2022-11-15T14:26:00;8.30;91.90
67161;DHT22;54088;52.238;21.104;2022-11-15T14:30:56;8.30;91.90
67161;DHT22;54088;52.238;21.104;2022-11-15T14:33:33;8.10;92.10
67161;DHT22;54088;52.238;21.104;2022-11-15T14:36:17;8.10;92.40
67161;DHT22;54088;52.238;21.104;2022-11-15T14:38:44;8.00;92.30
67161;DHT22;54088;52.238;21.104;2022-11-15T14:41:20;8.00;92.70
67161;DHT22;54088;52.238;21.104;2022-11-15T14:43:46;8.00;92.50
67161;DHT22;54088;52.238;21.104;2022-11-15T14:46:11;8.00;92.50
67161;DHT22;54088;52.238;21.104;2022-11-15T14:48:37;7.80;92.70
67161;DHT22;54088;52.238;21.104;2022-11-15T14:51:03;7.80;92.90
67161;DHT22;54088;52.238;21.104;2022-11-15T14:53:28;7.90;93.10
67161;DHT22;54088;52.238;21.104;2022-11-15T14:55:54;7.90;92.90
67161;DHT22;54088;52.238;21.104;2022-11-15T14:58:19;8.00;92.90
67161;DHT22;54088;52.238;21.104;2022-11-15T15:00:45;8.00;92.70
67161;DHT22;54088;52.238;21.104;2022-11-15T15:03:11;8.00;92.60
67161;DHT22;54088;52.238;21.104;2022-11-15T15:05:38;7.90;92.60
67161;DHT22;54088;52.238;21.104;2022-11-15T15:08:05;7.90;92.90
67161;DHT22;54088;52.238;21.104;2022-11-15T15:10:50;7.90;92.80
67161;DHT22;54088;52.238;21.104;2022-11-15T15:15:42;7.80;92.70
67161;DHT22;54088;52.238;21.104;2022-11-15T15:18:07;7.70;93.10
67161;DHT22;54088;52.238;21.104;2022-11-15T15:20:35;7.80;93.20
67161;DHT22;54088;52.238;21.104;2022-11-15T15:23:02;7.80;93.10
67161;DHT22;54088;52.238;21.104;2022-11-15T15:25:30;7.90;92.90
67161;DHT22;54088;52.238;21.104;2022-11-15T15:27:57;7.70;92.90
67161;DHT22;54088;52.238;21.104;2022-11-15T15:30:24;7.70;93.30
67161;DHT22;54088;52.238;21.104;2022-11-15T15:32:50;7.80;93.40
67161;DHT22;54088;52.238;21.104;2022-11-15T15:35:17;7.80;93.20
67161;DHT22;54088;52.238;21.104;2022-11-15T15:37:44;7.80;93.00
67161;DHT22;54088;52.238;21.104;2022-11-15T15:40:18;7.70;93.20
67161;DHT22;54088;52.238;21.104;2022-11-15T15:42:45;7.70;93.30
67161;DHT22;54088;52.238;21.104;2022-11-15T15:45:11;7.70;93.20
67161;DHT22;54088;52.238;21.104;2022-11-15T15:47:38;7.70;93.30
67161;DHT22;54088;52.238;21.104;2022-11-15T15:50:25;7.60;93.30
67161;DHT22;54088;52.238;21.104;2022-11-15T15:52:52;7.60;93.40
67161;DHT22;54088;52.238;21.104;2022-11-15T15:55:18;7.70;93.30
67161;DHT22;54088;52.238;21.104;2022-11-15T15:57:44;7.70;93.30
67161;DHT22;54088;52.238;21.104;2022-11-15T16:00:11;7.60;93.10
67161;DHT22;54088;52.238;21.104;2022-11-15T16:02:36;7.60;93.20
67161;DHT22;54088;52.238;21.104;2022-11-15T16:05:02;7.70;93.20
67161;DHT22;54088;52.238;21.104;2022-11-15T16:07:28;7.70;93.10
67161;DHT22;54088;52.238;21.104;2022-11-15T16:09:55;7.60;93.00
67161;DHT22;54088;52.238;21.104;2022-11-15T16:12:31;7.50;93.00
67161;DHT22;54088;52.238;21.104;2022-11-15T16:14:57;7.50;93.30
67161;DHT22;54088;52.238;21.104;2022-11-15T16:17:26;7.50;93.40
67161;DHT22;54088;52.238;21.104;2022-11-15T16:19:53;7.60;93.30
67161;DHT22;54088;52.238;21.104;2022-11-15T16:22:19;7.60;93.30
67161;DHT22;54088;52.238;21.104;2022-11-15T16:24:45;7.60;93.20
67161;DHT22;54088;52.238;21.104;2022-11-15T16:27:18;7.50;93.30
67161;DHT22;54088;52.238;21.104;2022-11-15T16:29:45;7.50;93.50
67161;DHT22;54088;52.238;21.104;2022-11-15T16:32:11;7.50;93.50
67161;DHT22;54088;52.238;21.104;2022-11-15T16:34:37;7.50;93.50
67161;DHT22;54088;52.238;21.104;2022-11-15T16:37:03;7.40;93.70
67161;DHT22;54088;52.238;21.104;2022-11-15T16:39:29;7.30;93.80
67161;DHT22;54088;52.238;21.104;2022-11-15T16:41:59;7.10;94.20
67161;DHT22;54088;52.238;21.104;2022-11-15T16:44:25;7.10;94.50
67161;DHT22;54088;52.238;21.104;2022-11-15T16:46:51;7.00;94.70
67161;DHT22;54088;52.238;21.104;2022-11-15T16:49:19;6.90;95.00
67161;DHT22;54088;52.238;21.104;2022-11-15T16:51:45;6.90;95.20
67161;DHT22;54088;52.238;21.104;2022-11-15T16:54:11;7.00;95.10
67161;DHT22;54088;52.238;21.104;2022-11-15T16:56:37;7.00;94.90
67161;DHT22;54088;52.238;21.104;2022-11-15T16:59:04;7.00;95.10
67161;DHT22;54088;52.238;21.104;2022-11-15T17:01:35;7.10;95.00
67161;DHT22;54088;52.238;21.104;2022-11-15T17:04:02;7.10;94.80
67161;DHT22;54088;52.238;21.104;2022-11-15T17:06:41;7.10;95.10
67161;DHT22;54088;52.238;21.104;2022-11-15T17:09:16;7.10;95.20
67161;DHT22;54088;52.238;21.104;2022-11-15T17:11:43;7.10;95.20
67161;DHT22;54088;52.238;21.104;2022-11-15T17:14:09;7.20;95.10
67161;DHT22;54088;52.238;21.104;2022-11-15T17:16:35;7.10;95.10
67161;DHT22;54088;52.238;21.104;2022-11-15T17:19:03;7.20;94.90
67161;DHT22;54088;52.238;21.104;2022-11-15T17:21:30;7.10;95.00
67161;DHT22;54088;52.238;21.104;2022-11-15T17:23:58;7.10;95.10
67161;DHT22;54088;52.238;21.104;2022-11-15T17:26:24;7.00;95.20
67161;DHT22;54088;52.238;21.104;2022-11-15T17:28:54;6.90;95.10
67161;DHT22;54088;52.238;21.104;2022-11-15T17:31:20;6.80;95.70
67161;DHT22;54088;52.238;21.104;2022-11-15T17:33:45;6.80;95.90